Time;durP1;ratioP1;P1;durP2;ratioP2;P2;SDS_P1;SDS_P2;PMS_P1;PMS_P2;Temp;Humidity;BMP_temperature;BMP_pressure;BME280_temperature;BME280_humidity;BME280_pressure;Samples;Min_cycle;Max_cycle;Signal;HPM_P1;HPM_P2
2024/01/14 00:01:18;;;;;;;25.92;10.85;;;;;;;-0.41;62.91;99798.44;5072144;28;20107;-26
2024/01/14 00:03:43;;;;;;;26.17;11.23;;;;;;;-0.31;62.04;99789.81;5071849;28;20024;-26
2024/01/14 00:06:09;;;;;;;22.15;10.65;;;;;;;-0.22;61.03;99778.56;5071593;28;20132;-24
2024/01/14 00:08:35;;;;;;;24.40;11.15;;;;;;;-0.41;62.34;99789.78;5071649;28;20029;-25
2024/01/14 00:11:00;;;;;;;22.95;10.50;;;;;;;-0.33;61.33;99789.94;5071906;28;20082;-26
2024/01/14 00:13:25;;;;;;;20.92;10.20;;;;;;;-0.29;63.13;99778.25;5072163;28;20055;-25
2024/01/14 00:15:51;;;;;;;19.33;9.75;;;;;;;-0.17;60.81;99789.47;5071340;28;20060;-25
2024/01/14 00:18:16;;;;;;;19.55;10.15;;;;;;;-0.31;61.99;99798.47;5071747;28;20078;-25
2024/01/14 00:20:42;;;;;;;19.38;9.45;;;;;;;-0.32;61.46;99803.84;5071459;28;20016;-25
2024/01/14 00:23:07;;;;;;;22.58;10.05;;;;;;;-0.24;61.62;99785.72;5071438;28;20047;-25
2024/01/14 00:25:33;;;;;;;21.55;9.95;;;;;;;-0.40;62.13;99791.41;5071432;28;20382;-25
2024/01/14 00:27:58;;;;;;;22.02;10.10;;;;;;;-0.32;62.37;99791.59;5071349;28;20029;-25
2024/01/14 00:30:24;;;;;;;19.50;9.60;;;;;;;-0.31;61.77;99781.97;5070988;28;20096;-25
2024/01/14 00:32:49;;;;;;;21.27;10.27;;;;;;;-0.11;60.82;99781.06;5071243;28;20044;-25
2024/01/14 00:35:14;;;;;;;24.73;10.35;;;;;;;-0.35;62.91;99772.72;5071208;28;20442;-25
2024/01/14 00:37:41;;;;;;;24.52;10.27;;;;;;;-0.23;62.60;99780.34;5071214;28;20028;-24
2024/01/14 00:40:07;;;;;;;19.73;9.77;;;;;;;-0.57;62.57;99782.44;5071268;28;20021;-25
2024/01/14 00:42:33;;;;;;;21.05;9.73;;;;;;;-0.24;62.53;99772.63;5071178;28;20488;-25
2024/01/14 00:44:58;;;;;;;22.55;10.50;;;;;;;-0.38;62.38;99779.06;5070927;28;20060;-25
2024/01/14 00:47:24;;;;;;;20.92;9.68;;;;;;;-0.58;62.13;99766.88;5071174;28;20028;-26
2024/01/14 00:49:49;;;;;;;19.75;9.35;;;;;;;-0.40;62.97;99773.97;5070715;28;20103;-25
2024/01/14 00:52:14;;;;;;;22.17;9.60;;;;;;;-0.33;62.54;99771.63;5070744;28;20166;-25
2024/01/14 00:54:40;;;;;;;20.30;9.57;;;;;;;-0.21;62.46;99765.34;5070409;28;20031;-25
2024/01/14 00:57:07;;;;;;;18.80;8.77;;;;;;;-0.65;62.97;99722.09;5070518;28;20386;-25
2024/01/14 00:59:33;;;;;;;20.90;9.90;;;;;;;-0.42;62.30;99752.34;5071040;28;20024;-25
2024/01/14 01:01:58;;;;;;;20.52;9.75;;;;;;;-0.56;63.92;99755.31;5068980;28;20032;-25
2024/01/14 01:04:24;;;;;;;19.77;9.50;;;;;;;-0.47;63.92;99749.28;5070304;28;20043;-25
2024/01/14 01:06:49;;;;;;;20.42;10.02;;;;;;;-0.69;63.94;99749.47;5070442;28;20115;-25
2024/01/14 01:09:15;;;;;;;23.15;10.77;;;;;;;-0.40;63.84;99745.19;5070254;28;20491;-25
2024/01/14 01:11:40;;;;;;;21.70;10.18;;;;;;;-0.71;63.63;99735.72;5070323;28;20055;-25
2024/01/14 01:14:06;;;;;;;19.15;9.65;;;;;;;-0.69;65.22;99739.84;5070346;28;20028;-26
2024/01/14 01:16:31;;;;;;;24.52;10.60;;;;;;;-0.66;64.66;99744.00;5070160;28;20052;-25
2024/01/14 01:18:56;;;;;;;23.75;10.45;;;;;;;-0.52;64.32;99734.97;5070317;28;20082;-26
2024/01/14 01:21:22;;;;;;;26.35;10.63;;;;;;;-0.67;64.58;99721.41;5070838;28;20047;-25
2024/01/14 01:23:48;;;;;;;25.33;10.93;;;;;;;-0.44;63.97;99735.13;5069928;28;20029;-24
2024/01/14 01:26:14;;;;;;;21.95;10.82;;;;;;;-0.68;65.67;99727.63;5069780;28;20033;-24
2024/01/14 01:28:39;;;;;;;22.27;10.70;;;;;;;-0.79;65.27;99728.53;5069572;28;20032;-25
2024/01/14 01:31:05;;;;;;;25.33;12.32;;;;;;;-0.60;64.90;99725.16;5069705;28;20028;-25
2024/01/14 01:33:30;;;;;;;27.45;12.13;;;;;;;-0.61;64.87;99710.44;5070083;28;20028;-25
2024/01/14 01:35:55;;;;;;;22.60;10.15;;;;;;;-0.52;64.00;99720.09;5069570;28;20025;-24
2024/01/14 01:38:21;;;;;;;25.10;11.25;;;;;;;-0.54;63.19;99710.75;5070232;28;20024;-25
2024/01/14 01:40:47;;;;;;;24.08;10.15;;;;;;;-0.68;63.87;99710.13;5069982;28;20490;-25
2024/01/14 01:43:13;;;;;;;25.75;10.20;;;;;;;-0.72;64.94;99698.31;5070349;28;20458;-25
2024/01/14 01:45:38;;;;;;;29.65;11.40;;;;;;;-0.85;64.85;99701.13;5070085;28;20850;-25
2024/01/14 01:48:05;;;;;;;22.67;11.02;;;;;;;-0.93;65.10;99705.34;5070170;28;20392;-25
2024/01/14 01:50:34;;;;;;;22.73;10.75;;;;;;;-0.93;65.89;99700.97;5069483;28;20020;-25
2024/01/14 01:52:59;;;;;;;25.25;11.55;;;;;;;-1.02;65.93;99701.75;5069509;28;20052;-25
2024/01/14 01:55:25;;;;;;;21.23;10.18;;;;;;;-0.87;65.88;99695.22;5069582;28;20058;-25
2024/01/14 01:57:50;;;;;;;22.85;10.65;;;;;;;-1.04;66.35;99691.41;5069624;28;20039;-25
2024/01/14 02:00:16;;;;;;;24.63;11.00;;;;;;;-1.00;65.84;99684.16;5069631;28;20091;-25
2024/01/14 02:02:42;;;;;;;24.02;10.90;;;;;;;-1.13;65.52;99699.19;5069231;28;20420;-39
2024/01/14 02:05:08;;;;;;;23.00;11.02;;;;;;;-1.07;65.91;99686.44;5070195;28;20024;-36
2024/01/14 02:07:34;;;;;;;26.13;10.90;;;;;;;-1.23;65.58;99681.69;5073637;28;20024;-38
2024/01/14 02:09:59;;;;;;;24.25;11.43;;;;;;;-1.27;67.12;99682.09;5073247;28;20029;-38
2024/01/14 02:12:25;;;;;;;29.17;11.25;;;;;;;-1.07;65.48;99683.00;5073235;28;20020;-36
2024/01/14 02:14:50;;;;;;;24.05;10.82;;;;;;;-1.08;65.61;99679.56;5073418;28;20028;-35
2024/01/14 02:17:16;;;;;;;24.38;11.60;;;;;;;-1.10;65.94;99678.06;5073230;28;20182;-38
2024/01/14 02:19:41;;;;;;;26.45;11.68;;;;;;;-1.14;64.93;99674.88;5073212;28;20027;-36
2024/01/14 02:22:23;;;;;;;25.92;11.70;;;;;;;-1.21;65.31;99666.72;5073505;28;20024;-39
2024/01/14 02:24:48;;;;;;;25.90;11.07;;;;;;;-1.11;64.63;99665.94;5073953;28;20142;-36
2024/01/14 02:27:14;;;;;;;25.92;11.23;;;;;;;-1.25;66.77;99670.56;5072473;28;20432;-38
2024/01/14 02:29:40;;;;;;;23.90;11.23;;;;;;;-1.36;66.53;99665.41;5073987;28;20035;-36
2024/01/14 02:32:05;;;;;;;32.38;11.80;;;;;;;-1.36;66.33;99668.00;5073497;28;20029;-37
2024/01/14 02:34:32;;;;;;;26.88;11.63;;;;;;;-1.61;66.96;99664.84;5072294;28;20066;-36
2024/01/14 02:36:57;;;;;;;26.98;12.20;;;;;;;-1.47;67.11;99676.72;5073262;28;20064;-38
2024/01/14 02:39:23;;;;;;;25.88;11.57;;;;;;;-1.41;65.39;99673.63;5059664;28;20029;-39
2024/01/14 02:41:48;;;;;;;25.85;11.10;;;;;;;-1.57;66.91;99665.41;5053206;28;20029;-38
2024/01/14 02:44:14;;;;;;;25.40;11.23;;;;;;;-1.29;67.66;99658.72;5058506;28;20089;-37
2024/01/14 02:46:40;;;;;;;31.70;12.20;;;;;;;-1.40;68.55;99654.38;5073074;28;20632;-39
2024/01/14 02:49:05;;;;;;;24.65;11.90;;;;;;;-1.47;68.19;99649.81;5073136;28;20030;-39
2024/01/14 02:51:30;;;;;;;28.88;12.00;;;;;;;-1.43;67.28;99659.03;5073251;28;20131;-38
2024/01/14 02:53:56;;;;;;;23.85;11.70;;;;;;;-1.59;67.46;99662.94;5059392;28;20121;-38
2024/01/14 02:56:21;;;;;;;27.95;12.80;;;;;;;-1.66;68.95;99659.16;5056153;28;20062;-36
2024/01/14 02:58:46;;;;;;;29.05;13.48;;;;;;;-1.75;67.21;99656.50;5072903;28;20111;-36
2024/01/14 03:01:12;;;;;;;29.55;12.57;;;;;;;-1.74;68.87;99658.97;5072671;28;20162;-38
2024/01/14 03:03:38;;;;;;;30.75;13.02;;;;;;;-1.82;68.98;99661.41;5071532;28;20214;-39
2024/01/14 03:06:04;;;;;;;28.88;12.90;;;;;;;-1.95;69.83;99652.91;5072676;28;20047;-35
2024/01/14 03:08:29;;;;;;;30.17;13.07;;;;;;;-1.87;71.25;99651.31;5068274;28;20033;-36
2024/01/14 03:10:55;;;;;;;32.33;14.32;;;;;;;-1.59;69.49;99655.09;5066665;28;20028;-37
2024/01/14 03:13:20;;;;;;;26.92;13.02;;;;;;;-1.75;69.47;99651.28;5072955;28;20016;-37
2024/01/14 03:15:45;;;;;;;29.50;13.02;;;;;;;-1.59;69.76;99652.50;5072162;28;20071;-38
2024/01/14 03:18:11;;;;;;;32.70;13.65;;;;;;;-1.53;69.20;99653.75;5072854;28;20024;-36
2024/01/14 03:20:37;;;;;;;34.60;14.68;;;;;;;-1.41;67.46;99649.28;5072717;28;20345;-39
2024/01/14 03:23:03;;;;;;;31.27;13.25;;;;;;;-1.74;69.09;99648.53;5072813;28;20031;-39
2024/01/14 03:25:29;;;;;;;33.78;14.55;;;;;;;-2.05;69.43;99638.03;5072440;28;20028;-37
2024/01/14 03:27:54;;;;;;;32.22;14.10;;;;;;;-2.07;69.97;99645.13;5072325;28;20029;-38
2024/01/14 03:30:20;;;;;;;29.40;13.73;;;;;;;-1.90;69.60;99648.97;5072308;28;20496;-37
2024/01/14 03:32:45;;;;;;;32.38;13.30;;;;;;;-1.90;70.85;99642.94;5072622;28;20035;-37
2024/01/14 03:35:10;;;;;;;31.45;13.27;;;;;;;-1.92;70.18;99635.25;5072494;28;20448;-38
2024/01/14 03:37:36;;;;;;;26.15;13.13;;;;;;;-2.00;69.17;99633.25;5072302;28;20103;-37
2024/01/14 03:40:02;;;;;;;32.03;13.15;;;;;;;-1.87;69.42;99638.28;5072418;28;20024;-37
2024/01/14 03:42:27;;;;;;;31.63;13.40;;;;;;;-1.84;69.14;99637.22;5072473;28;20032;-36
2024/01/14 03:44:53;;;;;;;30.38;13.18;;;;;;;-1.76;69.72;99637.41;5071869;28;20086;-38
2024/01/14 03:47:18;;;;;;;29.55;12.98;;;;;;;-1.89;70.46;99627.16;5072221;28;20769;-39
2024/01/14 03:49:43;;;;;;;29.92;13.40;;;;;;;-2.01;68.72;99621.16;5072101;28;20036;-39
2024/01/14 03:52:09;;;;;;;33.70;14.38;;;;;;;-1.92;70.41;99623.97;5072648;28;20043;-38
2024/01/14 03:54:34;;;;;;;33.95;14.40;;;;;;;-2.03;69.31;99620.47;5071916;28;20472;-39
2024/01/14 03:57:00;;;;;;;32.30;14.00;;;;;;;-2.03;71.47;99617.84;5072313;28;20031;-38
2024/01/14 03:59:25;;;;;;;35.00;14.27;;;;;;;-1.97;70.03;99621.75;5072435;28;20021;-26
2024/01/14 04:01:50;;;;;;;32.20;15.07;;;;;;;-2.07;70.44;99623.47;5072301;28;20398;-26
2024/01/14 04:04:16;;;;;;;29.10;14.15;;;;;;;-2.01;69.51;99622.94;5072205;28;20025;-24
2024/01/14 04:06:42;;;;;;;37.33;14.05;;;;;;;-2.00;69.22;99621.97;5072095;28;20073;-24
2024/01/14 04:09:08;;;;;;;33.03;13.43;;;;;;;-1.87;69.87;99619.19;5072041;28;20031;-24
2024/01/14 04:11:33;;;;;;;33.03;14.07;;;;;;;-1.79;68.93;99625.44;5072068;28;20411;-24
2024/01/14 04:13:59;;;;;;;36.92;14.85;;;;;;;-1.88;69.76;99628.00;5071833;28;20031;-24
2024/01/14 04:16:24;;;;;;;36.97;15.07;;;;;;;-1.80;69.25;99612.53;5071403;28;20062;-24
2024/01/14 04:18:49;;;;;;;31.73;14.68;;;;;;;-1.98;69.33;99623.53;5071216;28;20028;-24
2024/01/14 04:21:22;;;;;;;33.90;14.65;;;;;;;-1.84;68.99;99627.59;5071233;28;20017;-24
2024/01/14 04:23:48;;;;;;;36.10;13.82;;;;;;;-1.78;69.41;99627.09;5071212;28;20524;-24
2024/01/14 04:26:14;;;;;;;34.00;14.55;;;;;;;-2.10;69.06;99619.31;5071474;28;20099;-24
2024/01/14 04:28:39;;;;;;;36.35;14.45;;;;;;;-2.09;68.49;99631.41;5070911;28;20055;-25
2024/01/14 04:31:04;;;;;;;32.75;14.27;;;;;;;-2.13;70.86;99627.41;5071751;28;20449;-25
2024/01/14 04:33:30;;;;;;;29.55;13.50;;;;;;;-2.04;69.83;99624.00;5071642;28;20373;-25
2024/01/14 04:35:55;;;;;;;31.25;12.50;;;;;;;-2.14;69.37;99617.91;5071426;28;20077;-25
2024/01/14 04:38:20;;;;;;;28.90;13.07;;;;;;;-2.16;70.41;99619.81;5071578;28;20054;-25
2024/01/14 04:40:46;;;;;;;28.42;12.85;;;;;;;-2.01;69.61;99628.16;5070804;28;20012;-25
2024/01/14 04:43:11;;;;;;;26.83;12.65;;;;;;;-2.12;70.56;99621.22;5071243;28;20168;-25
2024/01/14 04:45:37;;;;;;;32.70;13.13;;;;;;;-2.30;69.11;99625.28;5071090;28;20056;-25
2024/01/14 04:48:03;;;;;;;25.92;11.70;;;;;;;-2.41;69.84;99628.78;5071383;28;20028;-24
2024/01/14 04:50:29;;;;;;;27.40;12.20;;;;;;;-2.26;69.80;99621.50;5071286;28;20036;-25
2024/01/14 04:52:55;;;;;;;24.88;10.65;;;;;;;-2.38;69.90;99628.53;5071336;28;20020;-25
2024/01/14 04:55:20;;;;;;;29.15;12.65;;;;;;;-2.38;70.27;99616.34;5070122;28;20503;-24
2024/01/14 04:57:45;;;;;;;29.20;12.35;;;;;;;-2.24;68.89;99635.25;5071019;28;20021;-25
2024/01/14 05:00:12;;;;;;;27.00;12.50;;;;;;;-2.09;69.89;99636.63;5070932;28;20081;-25
2024/01/14 05:02:38;;;;;;;32.35;13.02;;;;;;;-2.08;69.57;99625.22;5071462;28;20032;-25
2024/01/14 05:05:03;;;;;;;27.40;11.90;;;;;;;-1.92;69.10;99626.56;5063501;28;20035;-25
2024/01/14 05:07:29;;;;;;;29.23;12.00;;;;;;;-1.83;66.81;99624.06;5071659;28;20063;-25
2024/01/14 05:09:54;;;;;;;27.15;11.68;;;;;;;-1.92;68.46;99631.78;5069949;28;20322;-25
2024/01/14 05:12:20;;;;;;;28.17;12.00;;;;;;;-2.09;68.44;99627.97;5071391;28;20020;-25
2024/01/14 05:14:45;;;;;;;25.40;11.48;;;;;;;-2.29;68.76;99621.75;5071114;28;20060;-25
2024/01/14 05:17:10;;;;;;;25.75;11.65;;;;;;;-2.05;68.17;99635.41;5071390;28;20052;-25
2024/01/14 05:19:39;;;;;;;27.17;12.10;;;;;;;-1.89;67.20;99628.94;5071071;28;20071;-25
2024/01/14 05:22:05;;;;;;;29.95;12.20;;;;;;;-1.83;68.32;99633.63;5071450;28;20103;-26
2024/01/14 05:24:30;;;;;;;24.70;11.70;;;;;;;-1.87;66.94;99617.41;5071271;28;20111;-25
2024/01/14 05:26:56;;;;;;;26.30;11.50;;;;;;;-2.06;66.84;99612.06;5071346;28;20024;-25
2024/01/14 05:29:21;;;;;;;25.50;11.75;;;;;;;-2.26;69.20;99613.69;5070942;28;20024;-25
2024/01/14 05:31:46;;;;;;;25.35;12.25;;;;;;;-2.08;67.73;99617.38;5069024;28;20059;-25
2024/01/14 05:34:12;;;;;;;26.15;12.07;;;;;;;-1.79;67.85;99609.78;5070506;28;20498;-25
2024/01/14 05:36:37;;;;;;;29.80;13.30;;;;;;;-1.84;67.34;99609.34;5070544;28;20016;-25
2024/01/14 05:39:04;;;;;;;28.35;12.38;;;;;;;-2.08;67.22;99606.97;5070729;28;20051;-25
2024/01/14 05:41:30;;;;;;;26.73;12.27;;;;;;;-1.99;68.54;99614.03;5070346;28;20024;-25
2024/01/14 05:43:55;;;;;;;27.45;12.05;;;;;;;-2.22;68.92;99607.28;5070791;28;20079;-25
2024/01/14 05:46:20;;;;;;;29.33;13.40;;;;;;;-2.16;69.94;99604.16;5070646;28;20021;-25
2024/01/14 05:48:46;;;;;;;28.38;13.82;;;;;;;-2.25;68.98;99597.91;5070828;28;20074;-26
2024/01/14 05:51:11;;;;;;;30.77;14.20;;;;;;;-2.16;68.86;99607.59;5070997;28;20035;-26
2024/01/14 05:53:36;;;;;;;29.90;12.90;;;;;;;-2.15;69.02;99595.41;5070466;28;20456;-25
2024/01/14 05:56:03;;;;;;;31.08;13.55;;;;;;;-2.19;67.23;99600.03;5070358;28;20141;-38
2024/01/14 05:58:29;;;;;;;31.55;14.07;;;;;;;-2.29;69.05;99590.47;5070308;28;20452;-37
2024/01/14 06:00:55;;;;;;;30.25;13.52;;;;;;;-2.09;67.97;99596.69;5070461;28;20659;-37
2024/01/14 06:03:20;;;;;;;27.50;13.23;;;;;;;-1.99;68.75;99593.16;5070548;28;20063;-39
2024/01/14 06:05:45;;;;;;;30.80;13.73;;;;;;;-2.03;68.31;99588.34;5070434;28;20020;-41
2024/01/14 06:08:11;;;;;;;29.92;13.25;;;;;;;-1.91;68.48;99584.72;5070489;28;20088;-37
2024/01/14 06:10:36;;;;;;;29.00;13.10;;;;;;;-1.66;67.88;99596.53;5070556;28;20043;-39
2024/01/14 06:13:02;;;;;;;28.17;13.07;;;;;;;-1.44;68.66;99592.94;5070249;28;20052;-38
2024/01/14 06:15:27;;;;;;;29.80;12.38;;;;;;;-1.25;68.42;99594.00;5070312;28;20364;-26
2024/01/14 06:17:53;;;;;;;29.55;12.85;;;;;;;-1.07;65.99;99589.78;5070491;28;20386;-36
2024/01/14 06:20:18;;;;;;;27.83;12.30;;;;;;;-1.00;66.27;99592.72;5069010;28;20063;-39
2024/01/14 06:22:43;;;;;;;30.63;13.02;;;;;;;-0.51;64.20;99590.22;5070455;28;20469;-39
2024/01/14 06:25:09;;;;;;;28.17;12.35;;;;;;;-0.23;63.23;99578.94;5070509;28;20125;-39
2024/01/14 06:27:34;;;;;;;31.17;12.43;;;;;;;-0.25;62.96;99595.72;5070038;28;20481;-39
2024/01/14 06:30:01;;;;;;;29.48;13.30;;;;;;;-0.21;63.88;99591.88;5070273;28;20486;-39
2024/01/14 06:32:26;;;;;;;29.55;12.57;;;;;;;-0.08;62.16;99592.41;5066816;28;20028;-39
2024/01/14 06:34:51;;;;;;;30.00;13.52;;;;;;;-0.22;62.04;99600.69;5069107;28;20028;-38
2024/01/14 06:37:17;;;;;;;31.23;12.93;;;;;;;0.36;61.09;99603.25;5070606;28;20020;-39
2024/01/14 06:39:42;;;;;;;28.42;12.75;;;;;;;0.61;60.17;99608.00;5069580;28;20111;-39
2024/01/14 06:42:08;;;;;;;30.38;13.02;;;;;;;0.70;58.39;99601.91;5069673;28;20074;-40
2024/01/14 06:44:33;;;;;;;31.33;13.23;;;;;;;0.78;59.87;99607.25;5069616;28;20032;-39
2024/01/14 06:46:58;;;;;;;31.30;14.15;;;;;;;0.92;58.87;99603.34;5069989;28;20028;-40
2024/01/14 06:49:24;;;;;;;26.27;13.02;;;;;;;1.33;57.97;99602.03;5069768;28;20047;-40
2024/01/14 06:51:49;;;;;;;27.67;12.35;;;;;;;1.36;56.43;99611.41;5072363;28;20119;-39
2024/01/14 06:54:15;;;;;;;27.08;13.43;;;;;;;1.58;56.45;99601.47;5071615;28;20029;-40
2024/01/14 06:56:43;;;;;;;27.52;12.60;;;;;;;1.39;55.41;99600.63;5069814;28;20044;-39
2024/01/14 06:59:20;;;;;;;27.10;13.02;;;;;;;1.49;55.73;99604.00;5072930;28;20036;-39
2024/01/14 07:01:46;;;;;;;27.40;13.68;;;;;;;1.69;54.06;99590.75;5072988;28;20028;-40
2024/01/14 07:04:12;;;;;;;27.25;13.00;;;;;;;1.99;53.29;99592.16;5072495;28;20045;-38
2024/01/14 07:06:37;;;;;;;23.73;11.80;;;;;;;2.33;55.40;99587.00;5065113;28;20020;-40
2024/01/14 07:09:04;;;;;;;25.38;12.50;;;;;;;2.48;52.16;99589.06;5053916;28;20128;-39
2024/01/14 07:11:30;;;;;;;23.30;12.60;;;;;;;2.32;53.84;99581.88;5053161;28;20445;-41
2024/01/14 07:13:55;;;;;;;30.80;14.57;;;;;;;2.50;52.13;99593.19;5054091;28;20113;-40
2024/01/14 07:16:20;;;;;;;26.27;13.02;;;;;;;2.51;51.80;99594.00;5053407;28;20048;-40
2024/01/14 07:18:46;;;;;;;29.92;13.05;;;;;;;2.41;51.45;99590.66;5053880;28;20060;-37
2024/01/14 07:21:11;;;;;;;27.17;12.90;;;;;;;2.76;59.19;99587.09;5070578;28;20602;-40
2024/01/14 07:23:39;;;;;;;27.17;12.73;;;;;;;4.08;49.04;99593.50;5073318;28;20450;-42
2024/01/14 07:26:13;;;;;;;29.63;13.30;;;;;;;4.13;48.22;99585.91;5073315;28;20043;-42
2024/01/14 07:28:38;;;;;;;27.63;13.13;;;;;;;4.07;47.47;99581.28;5073635;28;20070;-40
2024/01/14 07:31:03;;;;;;;25.63;12.93;;;;;;;3.97;47.39;99585.91;5072802;28;20493;-40
2024/01/14 07:33:29;;;;;;;29.67;13.85;;;;;;;4.05;47.12;99578.00;5072450;28;20032;-40
2024/01/14 07:35:55;;;;;;;24.65;12.45;;;;;;;4.23;46.93;99583.13;5073443;28;20052;-40
2024/01/14 07:38:21;;;;;;;22.48;11.73;;;;;;;4.19;46.48;99574.72;5073266;28;20159;-39
2024/01/14 07:40:46;;;;;;;24.67;12.60;;;;;;;4.23;45.94;99570.75;5073347;28;20119;-40
2024/01/14 07:43:11;;;;;;;23.02;11.98;;;;;;;4.05;45.87;99570.91;5072680;28;20029;-41
2024/01/14 07:45:37;;;;;;;25.30;13.43;;;;;;;4.12;46.40;99568.47;5072642;28;20028;-42
2024/01/14 07:48:02;;;;;;;24.33;12.15;;;;;;;4.72;45.67;99555.81;5072946;28;20063;-43
2024/01/14 07:50:27;;;;;;;25.92;13.05;;;;;;;4.45;45.48;99565.78;5072883;28;20094;-40
2024/01/14 07:52:53;;;;;;;28.70;13.27;;;;;;;4.19;46.14;99558.06;5072739;28;20035;-38
2024/01/14 07:55:18;;;;;;;25.77;13.68;;;;;;;4.27;46.05;99558.06;5072314;28;20060;-40
2024/01/14 07:57:44;;;;;;;25.00;13.60;;;;;;;4.56;45.40;99551.44;5072776;28;20055;-40
2024/01/14 08:00:10;;;;;;;30.30;13.70;;;;;;;4.70;44.47;99556.81;5072801;28;20032;-40
2024/01/14 08:02:35;;;;;;;26.45;13.63;;;;;;;4.69;45.73;99560.44;5071811;28;20028;-40
2024/01/14 08:05:00;;;;;;;30.48;14.25;;;;;;;4.50;44.71;99553.75;5072265;28;20021;-36
2024/01/14 08:07:26;;;;;;;29.80;14.77;;;;;;;4.49;44.71;99549.47;5072562;28;20121;-40
2024/01/14 08:09:52;;;;;;;28.38;13.88;;;;;;;3.96;45.85;99550.88;5072210;28;20090;-41
2024/01/14 08:12:17;;;;;;;31.38;14.45;;;;;;;4.06;45.63;99548.06;5072747;28;20020;-41
2024/01/14 08:14:42;;;;;;;27.75;13.43;;;;;;;4.38;44.86;99551.63;5072162;28;20025;-40
2024/01/14 08:17:08;;;;;;;33.05;15.07;;;;;;;3.51;46.25;99544.25;5072279;28;20052;-42
2024/01/14 08:19:33;;;;;;;27.42;13.60;;;;;;;3.00;47.47;99543.47;5072522;28;20021;-40
2024/01/14 08:21:58;;;;;;;30.70;14.15;;;;;;;2.89;48.01;99541.94;5072557;28;20462;-39
2024/01/14 08:24:24;;;;;;;26.73;13.57;;;;;;;3.61;47.10;99533.56;5072066;28;20047;-39
2024/01/14 08:26:49;;;;;;;29.65;14.18;;;;;;;3.85;46.52;99536.22;5071951;28;20043;-41
2024/01/14 08:29:15;;;;;;;30.33;14.52;;;;;;;3.88;45.93;99537.69;5068896;28;20115;-38
2024/01/14 08:31:41;;;;;;;28.55;14.75;;;;;;;4.12;45.67;99528.97;5067405;28;20479;-39
2024/01/14 08:34:09;;;;;;;28.75;14.95;;;;;;;4.30;45.22;99531.38;5061430;28;20107;-38
2024/01/14 08:36:36;;;;;;;36.70;18.73;;;;;;;3.87;46.76;99536.88;5071547;28;20024;-44
2024/01/14 08:39:01;;;;;;;36.75;17.67;;;;;;;4.31;46.28;99525.94;5071872;28;20083;-40
2024/01/14 08:41:27;;;;;;;36.05;18.05;;;;;;;4.24;46.48;99535.50;5068834;28;20020;-40
2024/01/14 08:43:53;;;;;;;34.80;16.50;;;;;;;4.12;46.27;99536.84;5071646;28;20035;-40
2024/01/14 08:46:18;;;;;;;33.42;16.15;;;;;;;4.30;45.94;99531.38;5071138;28;20035;-40
2024/01/14 08:48:44;;;;;;;31.75;16.27;;;;;;;4.54;45.43;99524.41;5071679;28;20084;-40
2024/01/14 08:51:10;;;;;;;29.30;14.68;;;;;;;4.35;45.77;99515.09;5071671;28;20108;-42
2024/01/14 08:53:35;;;;;;;28.65;14.82;;;;;;;5.18;43.81;99519.00;5071535;28;20036;-41
2024/01/14 08:56:01;;;;;;;28.42;14.73;;;;;;;4.96;43.85;99531.19;5069324;28;20020;-41
2024/01/14 08:58:26;;;;;;;31.25;15.27;;;;;;;4.83;44.54;99529.09;5062701;28;20094;-44
2024/01/14 09:00:52;;;;;;;33.47;15.23;;;;;;;4.62;45.31;99521.75;5071563;28;20020;-41
2024/01/14 09:03:17;;;;;;;32.80;16.75;;;;;;;4.29;45.96;99527.13;5071282;28;20063;-40
2024/01/14 09:05:43;;;;;;;33.53;16.25;;;;;;;3.92;45.56;99521.41;5070073;28;20074;-41
2024/01/14 09:08:09;;;;;;;33.55;16.08;;;;;;;4.05;45.53;99510.34;5069468;28;20115;-38
2024/01/14 09:10:35;;;;;;;29.50;15.93;;;;;;;4.12;45.76;99513.16;5069840;28;20035;-41
2024/01/14 09:13:00;;;;;;;29.58;14.73;;;;;;;3.99;45.86;99497.84;5070229;28;20024;-40
2024/01/14 09:15:25;;;;;;;32.38;16.25;;;;;;;4.11;45.44;99504.44;5069930;28;20024;-40
2024/01/14 09:17:51;;;;;;;33.95;17.08;;;;;;;4.11;46.33;99495.69;5070303;28;20036;-41
2024/01/14 09:20:17;;;;;;;38.45;17.73;;;;;;;4.09;45.86;99481.88;5070656;28;20040;-43
2024/01/14 09:22:42;;;;;;;41.67;20.17;;;;;;;3.69;46.78;99481.78;5070908;28;20029;-40
2024/01/14 09:25:08;;;;;;;40.05;20.30;;;;;;;3.87;46.86;99476.31;5070815;28;20051;-43
2024/01/14 09:27:34;;;;;;;42.35;20.20;;;;;;;4.16;48.79;99476.78;5071114;28;20059;-39
2024/01/14 09:30:00;;;;;;;42.33;20.65;;;;;;;4.48;47.19;99471.41;5070955;28;20137;-39
2024/01/14 09:32:26;;;;;;;36.35;19.23;;;;;;;5.16;48.56;99471.72;5071314;28;20066;-40
2024/01/14 09:34:51;;;;;;;37.03;18.80;;;;;;;6.01;50.65;99465.41;5062422;28;20453;-38
2024/01/14 09:37:17;;;;;;;34.83;17.75;;;;;;;6.81;42.46;99445.31;5055097;28;20032;-43
2024/01/14 09:39:42;;;;;;;33.30;17.48;;;;;;;7.32;42.91;99449.72;5071221;28;20028;-40
2024/01/14 09:42:26;;;;;;;34.75;18.10;;;;;;;8.08;41.23;99448.28;5071026;28;20032;-43
2024/01/14 09:44:58;;;;;;;34.92;18.83;;;;;;;8.56;40.77;99451.00;5070186;28;20040;-42
2024/01/14 09:47:25;;;;;;;43.60;20.42;;;;;;;8.13;39.57;99461.75;5069745;28;20024;-42
2024/01/14 09:49:51;;;;;;;39.00;20.75;;;;;;;8.11;38.71;99454.03;5069939;28;20063;-39
2024/01/14 09:52:18;;;;;;;36.13;18.65;;;;;;;8.22;38.40;99431.44;5069869;28;20427;-40
2024/01/14 09:55:00;;;;;;;32.42;18.17;;;;;;;8.95;39.09;99420.34;5069888;28;20124;-43
2024/01/14 09:57:35;;;;;;;37.75;20.20;;;;;;;8.67;37.55;99423.09;5068872;28;20404;-38
2024/01/14 10:00:10;;;;;;;35.95;20.15;;;;;;;8.90;38.41;99417.47;5069317;28;20024;-41
2024/01/14 15:31:39;;;;;;;40.45;19.30;;;;;;;4.23;57.05;99254.66;5490394;23;20150;-20
2024/01/14 15:34:04;;;;;;;37.20;18.80;;;;;;;4.77;55.64;99255.59;4954741;29;20106;-21
2024/01/14 15:36:29;;;;;;;32.92;16.48;;;;;;;4.79;54.78;99266.78;4954711;29;20487;-24
2024/01/14 15:38:55;;;;;;;34.22;17.30;;;;;;;4.79;55.11;99264.94;4954848;29;20467;-24
2024/01/14 15:41:21;;;;;;;39.03;17.65;;;;;;;4.22;56.09;99247.75;4954494;29;20054;-25
2024/01/14 15:43:47;;;;;;;35.42;17.08;;;;;;;4.03;57.40;99267.44;4954490;29;20117;-23
2024/01/14 15:46:12;;;;;;;36.03;17.27;;;;;;;4.17;56.94;99273.81;4954631;29;20530;-22
2024/01/14 15:48:40;;;;;;;55.22;24.75;;;;;;;4.05;58.51;99273.34;4953570;29;20027;-24
2024/01/14 15:51:06;;;;;;;49.30;23.00;;;;;;;4.15;57.40;99278.44;4955025;29;20035;-23
2024/01/14 15:53:33;;;;;;;35.78;17.98;;;;;;;4.17;57.50;99283.50;4952448;29;20503;-23
2024/01/14 15:55:58;;;;;;;40.88;18.05;;;;;;;4.12;56.40;99270.84;4954521;29;20050;-23
2024/01/14 15:58:24;;;;;;;36.33;16.88;;;;;;;3.95;56.61;99278.03;4954839;29;20031;-22
2024/01/14 16:00:49;;;;;;;43.50;18.90;;;;;;;3.76;56.66;99273.16;4939508;29;20590;-22
2024/01/14 16:03:14;;;;;;;44.50;19.73;;;;;;;3.86;58.42;99277.22;4935914;29;20024;-22
2024/01/14 16:05:40;;;;;;;41.65;19.45;;;;;;;4.02;57.19;99280.81;4935464;29;20158;-21
2024/01/14 16:08:05;;;;;;;40.90;17.00;;;;;;;3.53;56.73;99285.25;4935164;29;20615;-25
2024/01/14 16:10:31;;;;;;;36.47;16.30;;;;;;;3.12;60.39;99280.09;4935285;29;20020;-26
2024/01/14 16:12:57;;;;;;;33.83;16.42;;;;;;;4.16;57.24;99279.25;4935578;29;20042;-22
2024/01/14 16:15:23;;;;;;;34.90;16.52;;;;;;;4.14;55.04;99292.56;4935873;29;20031;-24
2024/01/14 16:17:50;;;;;;;40.35;17.30;;;;;;;2.67;58.27;99288.47;4940260;29;20026;-22
2024/01/14 16:20:17;;;;;;;39.53;17.70;;;;;;;2.79;59.78;99286.34;4953849;29;20114;-25
2024/01/14 16:22:44;;;;;;;34.97;16.55;;;;;;;2.63;60.29;99272.22;4953959;29;20027;-21
2024/01/14 16:25:09;;;;;;;34.15;16.40;;;;;;;2.84;59.34;99279.63;4953049;28;20085;-22
2024/01/14 16:27:35;;;;;;;35.78;17.95;;;;;;;2.78;59.13;99290.78;4953288;29;20058;-22
2024/01/14 16:30:00;;;;;;;35.35;16.95;;;;;;;2.89;59.12;99281.72;4953832;29;20038;-22
2024/01/14 16:32:26;;;;;;;40.85;18.70;;;;;;;2.71;60.53;99280.09;4953498;29;20116;-23
2024/01/14 16:34:51;;;;;;;42.60;19.83;;;;;;;2.47;61.19;99280.06;4953476;29;20050;-23
2024/01/14 16:37:16;;;;;;;40.72;18.33;;;;;;;3.03;68.33;99278.44;4953336;29;20031;-24
2024/01/14 16:39:42;;;;;;;41.47;19.27;;;;;;;2.76;61.94;99284.03;4953589;29;20030;-24
2024/01/14 16:42:07;;;;;;;43.72;18.98;;;;;;;2.67;61.94;99291.94;4953577;29;20540;-24
2024/01/14 16:44:32;;;;;;;42.10;18.90;;;;;;;2.71;64.55;99290.59;4953758;29;20467;-26